Monday, July 6, 2015, 5:30 AM EDT

KJYO, Leesburg / Godfrey

Location: Leesburg, VA, United States Lat: 39.083
Local Time: 5:30 AM EDT ( 9:30 GMT) Lon: -77.567
Time Zone: US/Eastern Elev: 390 ft

Show me the last for .
Show Decoded

2015-07-06 05:15 METAR KJYO 060915Z AUTO 10003KT 4SM BR BKN010 OVC015 22/22 A3011 RMK AO2 =
2015-07-06 04:35 METAR KJYO 060835Z AUTO 13003KT 5SM BR BKN016 OVC025 22/22 A3011 RMK AO2 =
2015-07-06 04:15 METAR KJYO 060815Z AUTO 12005KT 5SM BR OVC014 22/22 A3011 RMK AO2 =
2015-07-06 03:55 METAR KJYO 060755Z AUTO 08003KT 4SM BR BKN012 OVC021 22/22 A3011 RMK AO2 =
2015-07-06 03:35 METAR KJYO 060735Z AUTO 00000KT 4SM BR OVC021 22/22 A3011 RMK AO2 =
2015-07-06 03:15 METAR KJYO 060715Z AUTO 06003KT 4SM BR BKN021 BKN032 OVC090 22/22 A3011 RMK AO2
                 =
2015-07-06 02:55 METAR KJYO 060655Z AUTO 00000KT 5SM BR SCT017 SCT025 OVC090 22/22 A3012 RMK AO2
                 LTG DSNT SE =
2015-07-06 02:35 METAR KJYO 060635Z AUTO 08003KT 4SM -RA SCT022 SCT042 OVC080 23/23 A3012 RMK AO2
                 =
2015-07-06 02:15 METAR KJYO 060615Z AUTO 00000KT 5SM -DZ BKN043 SCT060 BKN095 23/23 A3013 RMK AO2
                 =
2015-07-06 01:55 METAR KJYO 060555Z AUTO 20006KT 5SM -DZ SCT012 BKN021 BKN044 23/23 A3012 RMK AO2
                 P0001 =
2015-07-06 01:35 METAR KJYO 060535Z AUTO 21006KT 5SM -RA OVC012 23/23 A3013 RMK AO2 =
2015-07-06 01:15 METAR KJYO 060515Z AUTO 21009KT 7SM BKN014 BKN033 BKN049 23/23 A3013 RMK AO2 LTG
                 DSNT SE =
2015-07-06 00:55 METAR KJYO 060455Z AUTO 20007KT 7SM -DZ SCT016 SCT090 SCT120 23/23 A3013 RMK AO2
                 =
2015-07-06 00:35 METAR KJYO 060435Z AUTO 20009KT 7SM -RA SCT120 23/23 A3013 RMK AO2 =
2015-07-06 00:15 METAR KJYO 060415Z AUTO 18007KT 7SM -RA SCT120 24/23 A3013 RMK AO2 =
2015-07-05 23:55 METAR KJYO 060355Z AUTO 16007KT 7SM -RA SCT023 SCT050 BKN120 24/23 A3014 RMK AO2
                 =
2015-07-05 23:35 METAR KJYO 060335Z AUTO 16006KT 10SM -RA SCT023 SCT039 BKN100 25/23 A3014 RMK
                 AO2 =
2015-07-05 23:15 METAR KJYO 060315Z AUTO 17005KT 10SM SCT019 SCT026 25/23 A3014 RMK AO2 =
2015-07-05 22:55 METAR KJYO 060255Z AUTO 14005KT 10SM BKN019 25/23 A3014 RMK AO2 =
2015-07-05 22:35 METAR KJYO 060235Z AUTO 14005KT 10SM SCT017 SCT022 SCT028 25/23 A3014 RMK AO2 =
2015-07-05 22:15 METAR KJYO 060215Z AUTO 15004KT 10SM BKN022 BKN028 BKN044 26/23 A3014 RMK AO2 =
2015-07-05 21:55 METAR KJYO 060155Z AUTO 16005KT 10SM SCT024 26/23 A3014 RMK AO2 =
2015-07-05 21:35 METAR KJYO 060135Z AUTO 16004KT 10SM CLR 26/22 A3013 RMK AO2 LTG DSNT SW =
2015-07-05 21:15 METAR KJYO 060115Z AUTO 15004KT 10SM CLR 26/22 A3013 RMK AO2 LTG DSNT SW =
2015-07-05 20:55 METAR KJYO 060055Z AUTO 15003KT 10SM SCT090 26/22 A3012 RMK AO2 LTG DSNT SW =
2015-07-05 20:35 METAR KJYO 060035Z AUTO 17004KT 10SM BKN090 27/22 A3013 RMK AO2 =
2015-07-05 20:15 METAR KJYO 060015Z AUTO 19009KT 10SM SCT028 OVC090 26/23 A3013 RMK AO2 =
2015-07-05 19:55 METAR KJYO 052355Z AUTO 18005KT 10SM BKN028 SCT037 BKN090 26/23 A3012 RMK AO2 =
2015-07-05 19:35 METAR KJYO 052335Z AUTO 21004KT 10SM SCT028 SCT035 27/23 A3012 RMK AO2 =
2015-07-05 19:15 METAR KJYO 052315Z AUTO 00000KT 10SM CLR 27/23 A3011 RMK AO2 =
2015-07-05 18:55 METAR KJYO 052255Z AUTO 21011KT 10SM SCT090 27/23 A3011 RMK AO2 =
2015-07-05 18:35 METAR KJYO 052235Z AUTO 18006KT 10SM SCT090 27/23 A3011 RMK AO2 =
2015-07-05 18:15 METAR KJYO 052215Z AUTO 21011KT 10SM SCT046 SCT080 BKN090 27/23 A3011 RMK AO2 =
2015-07-05 17:55 METAR KJYO 052155Z AUTO 21009KT 10SM BKN046 OVC080 27/23 A3011 RMK AO2 LTG DSNT
                 S =
2015-07-05 17:35 METAR KJYO 052135Z AUTO 21010KT 10SM SCT044 BKN070 OVC080 27/23 A3011 RMK AO2 =
2015-07-05 17:15 METAR KJYO 052115Z AUTO 20010KT 10SM SCT027 BKN070 OVC080 27/22 A3011 RMK AO2 =
2015-07-05 16:55 METAR KJYO 052055Z AUTO 19010G14KT 10SM SCT027 SCT037 SCT080 28/22 A3012 RMK AO2
                 =
2015-07-05 16:35 METAR KJYO 052035Z AUTO 19004KT 10SM SCT028 SCT037 SCT047 28/22 A3012 RMK AO2 =
2015-07-05 16:15 METAR KJYO 052015Z AUTO 21009KT 10SM BKN028 BKN047 BKN060 28/22 A3012 RMK AO2 =
2015-07-05 15:55 METAR KJYO 051955Z AUTO 21007KT 10SM BKN028 BKN049 28/22 A3012 RMK AO2 =
2015-07-05 15:35 METAR KJYO 051935Z AUTO 20010KT 10SM BKN028 BKN035 BKN049 27/22 A3014 RMK AO2 =
2015-07-05 15:15 METAR KJYO 051915Z AUTO 20006KT 10SM SCT029 SCT036 28/22 A3014 RMK AO2 =
2015-07-05 14:55 METAR KJYO 051855Z AUTO 16007KT 130V220 10SM CLR 28/22 A3014 RMK AO2 =
2015-07-05 14:35 METAR KJYO 051835Z AUTO 23004KT 10SM SCT025 SCT049 27/21 A3015 RMK AO2 =
2015-07-05 14:15 METAR KJYO 051815Z AUTO 20007KT 10SM BKN023 BKN028 BKN049 27/21 A3016 RMK AO2 =
2015-07-05 13:55 METAR KJYO 051755Z AUTO 20006KT 10SM OVC021 26/22 A3016 RMK AO2 =
2015-07-05 13:35 METAR KJYO 051735Z AUTO 17007KT 120V200 10SM BKN021 26/21 A3017 RMK AO2 =
2015-07-05 13:15 METAR KJYO 051715Z AUTO 00000KT 10SM BKN017 26/22 A3018 RMK AO2 =
2015-07-05 12:55 METAR KJYO 051655Z AUTO 17006KT 10SM BKN017 25/21 A3017 RMK AO2 =
2015-07-05 12:35 METAR KJYO 051635Z AUTO 06004KT 7SM OVC015 24/21 A3018 RMK AO2 =
2015-07-05 12:15 METAR KJYO 051615Z AUTO 18004KT 7SM OVC015 24/21 A3018 RMK AO2 =
2015-07-05 11:55 METAR KJYO 051555Z AUTO 18004KT 7SM BKN013 23/21 A3018 RMK AO2 =
2015-07-05 11:35 METAR KJYO 051535Z AUTO 16003KT 7SM OVC013 23/21 A3018 RMK AO2 =
2015-07-05 11:15 METAR KJYO 051515Z AUTO 18004KT 7SM OVC011 23/21 A3018 RMK AO2 =
2015-07-05 10:55 METAR KJYO 051455Z AUTO 08004KT 7SM BKN011 22/21 A3018 RMK AO2 =
2015-07-05 10:35 METAR KJYO 051435Z AUTO 33004KT 5SM BR SCT007 22/21 A3018 RMK AO2 =
2015-07-05 10:15 METAR KJYO 051415Z AUTO 32004KT 4SM BR OVC007 21/21 A3018 RMK AO2 =
2015-07-05 09:55 METAR KJYO 051355Z AUTO 29004KT 4SM BR OVC007 21/21 A3018 RMK AO2 =
2015-07-05 09:35 METAR KJYO 051335Z AUTO 35003KT 3SM BR OVC005 20/20 A3017 RMK AO2 =
2015-07-05 09:15 METAR KJYO 051315Z AUTO 00000KT 3SM BR OVC005 20/20 A3018 RMK AO2 =
2015-07-05 08:55 METAR KJYO 051255Z AUTO 32005KT 2 1/2SM BR OVC003 20/20 A3017 RMK AO2 =
2015-07-05 08:35 METAR KJYO 051235Z AUTO 00000KT 1 3/4SM BR OVC003 19/19 A3016 RMK AO2 =
2015-07-05 08:15 METAR KJYO 051215Z AUTO 00000KT 1SM BR OVC003 19/19 A3016 RMK AO2 =
2015-07-05 07:55 METAR KJYO 051155Z AUTO 00000KT 1 3/4SM BR OVC003 19/19 A3015 RMK AO2 =
2015-07-05 07:35 METAR KJYO 051135Z AUTO 35004KT 1SM BR OVC003 19/19 A3015 RMK AO2 =
2015-07-05 07:15 METAR KJYO 051115Z AUTO 00000KT 1/4SM FG OVC003 19/19 A3014 RMK AO2 =
2015-07-05 06:35 METAR KJYO 051035Z AUTO 36004KT 1/4SM FG OVC003 18/18 A3013 RMK AO2 =
2015-07-05 06:15 METAR KJYO 051015Z AUTO 01005KT M1/4SM FG OVC003 19/19 A3012 RMK AO2 =
2015-07-05 05:55 METAR KJYO 050955Z AUTO 34003KT 1/4SM FG OVC003 18/18 A3011 RMK AO2 =

Support USWX by starting your Amazon purchase here.